Terminal Aerodrome Forecast
Issued by NWS Sterling, VA

Current Version | Previous Version | Text Only | Print | Product List | Glossary Off
Versions: 1 2 3 4 5 6 7 8 9 10 11 12 13 14 15 16 17 18 19 20 21 22

000
FTUS41 KLWX 250906 AAA
TAFIAD
TAF AMD
KIAD 250906Z 2509/2612 VRB03KT P6SM OVC100
     FM252100 17004KT P6SM -RA OVC070
     FM260000 00000KT 3SM -RA OVC015
     FM260500 VRB03KT 3SM -RA OVC006
     FM260900 36005KT 3SM -RA OVC008
     FM261000 36005KT P6SM OVC008=

USA.gov is the U.S. government's official web portal to all federal, state and local government web resources and services.